Time,TemperatureF,DewpointF,PressureIn,WindDirection,WindDirectionDegrees,WindSpeedMPH,WindSpeedGustMPH,Humidity,HourlyPrecipIn,Conditions,Clouds,dailyrainin,SoftwareType,DateUTC
2013-06-13 00:00:00,61.4,58.1,29.84,ENE,59,0.0,0.0,89,0.00,,,0.00,Wunderground v.1.15,2013-06-13 04:00:00,
2013-06-13 00:04:00,61.3,58.3,29.83,ENE,59,0.0,0.0,90,0.00,,,0.00,Wunderground v.1.15,2013-06-13 04:04:00,
2013-06-13 00:09:00,61.3,58.3,29.84,ENE,59,0.0,0.0,90,0.00,,,0.00,Wunderground v.1.15,2013-06-13 04:09:00,
2013-06-13 00:15:00,61.2,58.2,29.84,ENE,59,0.0,0.0,90,0.00,,,0.00,Wunderground v.1.15,2013-06-13 04:15:00,
2013-06-13 00:24:00,61.2,58.6,29.84,ENE,59,0.0,0.0,91,0.00,,,0.00,Wunderground v.1.15,2013-06-13 04:24:00,
2013-06-13 00:30:00,61.1,58.5,29.84,ENE,59,0.0,0.0,91,0.00,,,0.00,Wunderground v.1.15,2013-06-13 04:30:00,
2013-06-13 00:34:00,61.0,58.4,29.83,ENE,59,0.0,0.0,91,0.00,,,0.00,Wunderground v.1.15,2013-06-13 04:34:00,
2013-06-13 00:45:00,60.9,58.6,29.83,ENE,59,0.0,0.0,92,0.00,,,0.00,Wunderground v.1.15,2013-06-13 04:45:00,
2013-06-13 00:55:00,60.8,58.5,29.82,ENE,59,0.0,0.0,92,0.00,,,0.00,Wunderground v.1.15,2013-06-13 04:55:00,
2013-06-13 01:00:00,60.7,58.4,29.82,ENE,59,0.0,0.0,92,0.00,,,0.00,Wunderground v.1.15,2013-06-13 05:00:00,
2013-06-13 01:09:00,60.5,57.9,29.82,ENE,59,0.0,0.0,91,0.00,,,0.00,Wunderground v.1.15,2013-06-13 05:09:00,
2013-06-13 01:15:00,60.5,58.2,29.81,ENE,59,0.0,0.0,92,0.00,,,0.00,Wunderground v.1.15,2013-06-13 05:15:00,
2013-06-13 01:24:00,60.3,58.0,29.80,ENE,59,0.0,0.0,92,0.00,,,0.00,Wunderground v.1.15,2013-06-13 05:24:00,
2013-06-13 01:30:00,60.2,57.9,29.81,ENE,59,0.0,0.0,92,0.00,,,0.00,Wunderground v.1.15,2013-06-13 05:30:00,
2013-06-13 01:39:00,60.0,57.7,29.81,ENE,59,0.0,0.0,92,0.00,,,0.00,Wunderground v.1.15,2013-06-13 05:39:00,
2013-06-13 01:45:00,59.9,57.9,29.80,ENE,59,0.0,1.0,93,0.00,,,0.00,Wunderground v.1.15,2013-06-13 05:45:00,
2013-06-13 01:54:00,59.7,57.7,29.81,ENE,59,0.0,0.0,93,0.00,,,0.00,Wunderground v.1.15,2013-06-13 05:54:00,
2013-06-13 02:00:00,59.6,57.6,29.80,ENE,59,0.0,1.0,93,0.00,,,0.00,Wunderground v.1.15,2013-06-13 06:00:00,
2013-06-13 02:09:00,59.4,57.4,29.80,ENE,59,0.0,0.0,93,0.00,,,0.00,Wunderground v.1.15,2013-06-13 06:09:00,
2013-06-13 02:15:00,59.3,57.6,29.80,ENE,59,0.0,0.0,94,0.00,,,0.00,Wunderground v.1.15,2013-06-13 06:15:00,
2013-06-13 02:24:00,59.1,57.1,29.79,ENE,59,0.0,0.0,93,0.00,,,0.00,Wunderground v.1.15,2013-06-13 06:24:00,
2013-06-13 02:30:00,59.0,57.0,29.79,ENE,59,0.0,0.0,93,0.00,,,0.00,Wunderground v.1.15,2013-06-13 06:30:00,
2013-06-13 02:39:00,58.8,57.1,29.79,ENE,59,0.0,0.0,94,0.00,,,0.00,Wunderground v.1.15,2013-06-13 06:39:00,
2013-06-13 02:45:00,58.7,57.0,29.80,ENE,59,0.0,0.0,94,0.00,,,0.00,Wunderground v.1.15,2013-06-13 06:45:00,
2013-06-13 02:54:00,58.6,56.9,29.80,ENE,59,0.0,0.0,94,0.00,,,0.00,Wunderground v.1.15,2013-06-13 06:54:00,
2013-06-13 03:00:00,58.7,57.3,29.80,ENE,59,0.0,1.0,95,0.00,,,0.00,Wunderground v.1.15,2013-06-13 07:00:00,
2013-06-13 03:09:00,58.8,57.4,29.80,ENE,59,0.0,0.0,95,0.00,,,0.00,Wunderground v.1.15,2013-06-13 07:09:00,
2013-06-13 03:15:00,58.9,57.5,29.80,ENE,59,0.0,0.0,95,0.00,,,0.00,Wunderground v.1.15,2013-06-13 07:15:00,
2013-06-13 03:24:00,59.0,57.6,29.80,ENE,59,0.0,0.0,95,0.00,,,0.00,Wunderground v.1.15,2013-06-13 07:24:00,
2013-06-13 03:30:00,59.1,57.7,29.79,ENE,59,0.0,0.0,95,0.00,,,0.00,Wunderground v.1.15,2013-06-13 07:30:00,
2013-06-13 03:39:00,59.2,57.8,29.78,ENE,59,0.0,1.0,95,0.00,,,0.00,Wunderground v.1.15,2013-06-13 07:39:00,
2013-06-13 03:45:00,59.2,57.8,29.78,ENE,59,0.0,1.0,95,0.00,,,0.00,Wunderground v.1.15,2013-06-13 07:45:00,
2013-06-13 03:54:00,59.3,57.9,29.78,ENE,59,0.0,2.0,95,0.00,,,0.00,Wunderground v.1.15,2013-06-13 07:54:00,
2013-06-13 04:00:00,59.3,57.9,29.78,ENE,59,0.0,0.0,95,0.00,,,0.00,Wunderground v.1.15,2013-06-13 08:00:00,
2013-06-13 04:09:00,59.4,58.0,29.78,ENE,59,0.0,0.0,95,0.00,,,0.00,Wunderground v.1.15,2013-06-13 08:09:00,
2013-06-13 04:15:00,59.5,58.1,29.78,ENE,59,0.0,0.0,95,0.00,,,0.00,Wunderground v.1.15,2013-06-13 08:15:00,
2013-06-13 04:24:00,59.6,58.2,29.78,ENE,59,0.0,0.0,95,0.00,,,0.00,Wunderground v.1.15,2013-06-13 08:24:00,
2013-06-13 04:30:00,59.7,58.3,29.78,ENE,59,0.0,0.0,95,0.00,,,0.00,Wunderground v.1.15,2013-06-13 08:30:00,
2013-06-13 04:39:00,59.8,58.4,29.78,ENE,59,0.0,0.0,95,0.00,,,0.00,Wunderground v.1.15,2013-06-13 08:39:00,
2013-06-13 04:45:00,59.9,58.5,29.79,ENE,59,0.0,0.0,95,0.00,,,0.00,Wunderground v.1.15,2013-06-13 08:45:00,
2013-06-13 04:54:00,60.0,58.6,29.78,ENE,59,0.0,0.0,95,0.00,,,0.00,Wunderground v.1.15,2013-06-13 08:54:00,
2013-06-13 05:00:00,60.0,58.6,29.78,ENE,59,0.0,0.0,95,0.00,,,0.00,Wunderground v.1.15,2013-06-13 09:00:00,
2013-06-13 05:09:00,60.0,58.6,29.78,ENE,59,0.0,0.0,95,0.00,,,0.00,Wunderground v.1.15,2013-06-13 09:09:00,
2013-06-13 05:15:00,60.0,58.6,29.78,ENE,59,0.0,0.0,95,0.00,,,0.00,Wunderground v.1.15,2013-06-13 09:15:00,
2013-06-13 05:24:00,60.2,58.8,29.76,NE,46,1.0,1.0,95,0.00,,,0.00,Wunderground v.1.15,2013-06-13 09:24:00,
2013-06-13 05:30:00,60.2,58.8,29.76,NE,46,1.0,1.0,95,0.00,,,0.01,Wunderground v.1.15,2013-06-13 09:30:00,
2013-06-13 05:39:00,60.1,58.7,29.76,NE,46,0.0,1.0,95,0.00,,,0.01,Wunderground v.1.15,2013-06-13 09:39:00,
2013-06-13 05:45:00,60.0,58.6,29.75,NE,46,0.0,1.0,95,0.00,,,0.01,Wunderground v.1.15,2013-06-13 09:45:00,
2013-06-13 05:54:00,59.9,58.8,29.75,NE,46,0.0,0.0,96,0.00,,,0.01,Wunderground v.1.15,2013-06-13 09:54:00,
2013-06-13 06:00:00,60.0,58.9,29.74,ESE,115,0.0,0.0,96,0.00,,,0.01,Wunderground v.1.15,2013-06-13 10:00:00,
2013-06-13 06:09:00,60.1,58.7,29.74,SW,216,1.0,1.0,95,0.00,,,0.01,Wunderground v.1.15,2013-06-13 10:09:00,
2013-06-13 06:15:00,60.2,59.1,29.74,SW,216,0.0,1.0,96,0.00,,,0.02,Wunderground v.1.15,2013-06-13 10:15:00,
2013-06-13 06:24:00,60.4,59.3,29.74,North,5,0.0,1.0,96,0.00,,,0.02,Wunderground v.1.15,2013-06-13 10:24:00,
2013-06-13 06:30:00,60.5,59.4,29.74,North,5,0.0,0.0,96,0.00,,,0.02,Wunderground v.1.15,2013-06-13 10:30:00,
2013-06-13 06:39:00,60.7,59.6,29.74,North,5,0.0,0.0,96,0.00,,,0.02,Wunderground v.1.15,2013-06-13 10:39:00,
2013-06-13 06:45:00,60.8,59.7,29.74,North,5,0.0,0.0,96,0.00,,,0.02,Wunderground v.1.15,2013-06-13 10:45:00,
2013-06-13 06:54:00,60.7,59.6,29.71,ESE,111,1.0,1.0,96,0.00,,,0.03,Wunderground v.1.15,2013-06-13 10:54:00,
2013-06-13 07:00:00,60.5,59.4,29.70,ESE,111,0.0,0.0,96,0.00,,,0.03,Wunderground v.1.15,2013-06-13 11:00:00,
2013-06-13 07:09:00,60.5,59.4,29.72,SSE,149,0.0,0.0,96,0.00,,,0.03,Wunderground v.1.15,2013-06-13 11:09:00,
2013-06-13 07:15:00,60.6,59.5,29.73,SSE,150,0.0,0.0,96,0.00,,,0.03,Wunderground v.1.15,2013-06-13 11:15:00,
2013-06-13 07:24:00,60.7,59.6,29.74,SSE,150,0.0,0.0,96,0.00,,,0.03,Wunderground v.1.15,2013-06-13 11:24:00,
2013-06-13 07:30:00,60.8,59.7,29.73,East,96,0.0,2.0,96,0.00,,,0.03,Wunderground v.1.15,2013-06-13 11:30:00,
2013-06-13 07:39:00,61.1,60.0,29.73,East,96,0.0,0.0,96,0.00,,,0.03,Wunderground v.1.15,2013-06-13 11:39:00,
2013-06-13 07:45:00,61.1,60.0,29.72,East,96,0.0,0.0,96,0.00,,,0.03,Wunderground v.1.15,2013-06-13 11:45:00,
2013-06-13 07:54:00,61.2,60.1,29.73,East,96,0.0,0.0,96,0.00,,,0.03,Wunderground v.1.15,2013-06-13 11:54:00,
2013-06-13 08:00:00,61.1,60.0,29.73,East,96,0.0,0.0,96,0.00,,,0.03,Wunderground v.1.15,2013-06-13 12:00:00,
2013-06-13 08:09:00,61.2,60.1,29.72,East,96,0.0,0.0,96,0.00,,,0.03,Wunderground v.1.15,2013-06-13 12:09:00,
2013-06-13 08:15:00,61.2,59.8,29.71,East,96,1.0,1.0,95,0.00,,,0.03,Wunderground v.1.15,2013-06-13 12:15:00,
2013-06-13 08:24:00,61.2,59.8,29.71,East,96,1.0,1.0,95,0.00,,,0.03,Wunderground v.1.15,2013-06-13 12:24:00,
2013-06-13 08:30:00,61.1,59.7,29.72,NW,311,1.0,1.0,95,0.55,,,0.08,Wunderground v.1.15,2013-06-13 12:30:00,
2013-06-13 08:39:00,60.9,59.5,29.69,NNE,15,0.0,0.0,95,0.07,,,0.09,Wunderground v.1.15,2013-06-13 12:39:00,
2013-06-13 08:45:00,60.7,59.3,29.70,SSE,150,0.0,0.0,95,0.08,,,0.10,Wunderground v.1.15,2013-06-13 12:45:00,
2013-06-13 08:54:00,60.5,59.4,29.71,West,275,1.0,2.0,96,0.34,,,0.17,Wunderground v.1.15,2013-06-13 12:54:00,
2013-06-13 09:00:00,60.4,59.3,29.71,SSE,150,1.0,1.0,96,0.20,,,0.19,Wunderground v.1.15,2013-06-13 13:00:00,
2013-06-13 09:09:00,60.4,59.3,29.69,West,275,1.0,1.0,96,0.31,,,0.24,Wunderground v.1.15,2013-06-13 13:09:00,
2013-06-13 09:15:00,60.4,59.5,29.69,West,275,1.0,1.0,97,0.15,,,0.25,Wunderground v.1.15,2013-06-13 13:15:00,
2013-06-13 09:24:00,60.5,59.6,29.69,West,275,1.0,1.0,97,0.08,,,0.26,Wunderground v.1.15,2013-06-13 13:24:00,
2013-06-13 09:30:00,60.4,59.5,29.67,NNE,30,1.0,2.0,97,0.08,,,0.27,Wunderground v.1.15,2013-06-13 13:30:00,
2013-06-13 09:39:00,60.3,59.4,29.66,West,265,1.0,1.0,97,0.25,,,0.31,Wunderground v.1.15,2013-06-13 13:39:00,
2013-06-13 09:45:00,60.3,59.4,29.66,West,265,0.0,1.0,97,0.19,,,0.34,Wunderground v.1.15,2013-06-13 13:45:00,
2013-06-13 09:54:00,60.0,59.1,29.67,West,265,0.0,0.0,97,0.19,,,0.36,Wunderground v.1.15,2013-06-13 13:54:00,
2013-06-13 10:00:00,60.2,59.3,29.66,NNE,30,0.0,1.0,97,0.49,,,0.39,Wunderground v.1.15,2013-06-13 14:00:00,
2013-06-13 10:09:00,60.2,59.3,29.64,West,280,1.0,1.0,97,0.14,,,0.41,Wunderground v.1.15,2013-06-13 14:09:00,
2013-06-13 10:15:00,60.2,59.3,29.65,NNE,13,1.0,2.0,97,0.13,,,0.43,Wunderground v.1.15,2013-06-13 14:15:00,
2013-06-13 10:24:00,60.0,59.1,29.62,NE,55,2.0,2.0,97,0.36,,,0.49,Wunderground v.1.15,2013-06-13 14:24:00,
2013-06-13 10:35:00,60.0,59.1,29.61,SSW,199,2.0,2.0,97,0.07,,,0.51,Wunderground v.1.15,2013-06-13 14:35:00,
2013-06-13 10:45:00,60.2,59.3,29.62,NW,304,1.0,1.0,97,0.05,,,0.52,Wunderground v.1.15,2013-06-13 14:45:00,
2013-06-13 10:54:00,60.5,59.6,29.62,East,90,0.0,1.0,97,0.04,,,0.52,Wunderground v.1.15,2013-06-13 14:54:00,
2013-06-13 11:00:00,61.3,60.7,29.61,East,84,1.0,1.0,98,0.00,,,0.52,Wunderground v.1.15,2013-06-13 15:00:00,
2013-06-13 11:09:00,61.7,60.5,29.61,ENE,65,1.0,1.0,96,0.00,,,0.52,Wunderground v.1.15,2013-06-13 15:09:00,
2013-06-13 11:15:00,61.9,60.7,29.61,SSE,160,1.0,1.0,96,0.00,,,0.52,Wunderground v.1.15,2013-06-13 15:15:00,
2013-06-13 11:24:00,62.1,60.7,29.62,SE,134,1.0,1.0,95,0.00,,,0.52,Wunderground v.1.15,2013-06-13 15:24:00,
2013-06-13 11:30:00,62.1,60.7,29.61,NE,34,2.0,2.0,95,0.00,,,0.52,Wunderground v.1.15,2013-06-13 15:30:00,
2013-06-13 11:39:00,62.3,60.6,29.60,SSE,163,2.0,2.0,94,0.00,,,0.52,Wunderground v.1.15,2013-06-13 15:39:00,
2013-06-13 11:45:00,62.5,60.4,29.59,East,85,2.0,5.0,93,0.00,,,0.52,Wunderground v.1.15,2013-06-13 15:45:00,
2013-06-13 11:54:00,63.2,61.1,29.58,ENE,78,2.0,2.0,93,0.00,,,0.52,Wunderground v.1.15,2013-06-13 15:54:00,
2013-06-13 12:00:00,63.5,60.8,29.58,East,90,2.0,2.0,91,0.00,,,0.52,Wunderground v.1.15,2013-06-13 16:00:00,
2013-06-13 12:09:00,63.5,60.5,29.57,NNW,346,1.0,1.0,90,0.00,,,0.52,Wunderground v.1.15,2013-06-13 16:09:00,
2013-06-13 12:15:00,63.6,60.9,29.56,East,95,1.0,1.0,91,0.00,,,0.52,Wunderground v.1.15,2013-06-13 16:15:00,
2013-06-13 12:24:00,63.8,61.4,29.56,ENE,69,1.0,3.0,92,0.00,,,0.52,Wunderground v.1.15,2013-06-13 16:24:00,
2013-06-13 12:30:00,64.0,61.3,29.56,ESE,107,1.0,1.0,91,0.00,,,0.52,Wunderground v.1.15,2013-06-13 16:30:00,
2013-06-13 12:39:00,65.0,62.3,29.56,East,90,1.0,1.0,91,0.00,,,0.52,Wunderground v.1.15,2013-06-13 16:39:00,
2013-06-13 12:45:00,65.2,62.2,29.57,South,173,0.0,3.0,90,0.00,,,0.52,Wunderground v.1.15,2013-06-13 16:45:00,
2013-06-13 12:54:00,65.6,61.9,29.56,ENE,78,1.0,3.0,88,0.00,,,0.52,Wunderground v.1.15,2013-06-13 16:54:00,
2013-06-13 13:00:00,65.5,62.2,29.56,NNW,331,1.0,1.0,89,0.00,,,0.52,Wunderground v.1.15,2013-06-13 17:00:00,
2013-06-13 13:09:00,65.3,62.0,29.56,East,96,1.0,1.0,89,0.00,,,0.52,Wunderground v.1.15,2013-06-13 17:09:00,
2013-06-13 13:15:00,65.2,61.6,29.55,East,97,1.0,1.0,88,0.00,,,0.52,Wunderground v.1.15,2013-06-13 17:15:00,
2013-06-13 13:24:00,64.9,61.3,29.55,West,268,2.0,2.0,88,0.00,,,0.52,Wunderground v.1.15,2013-06-13 17:24:00,
2013-06-13 13:30:00,64.9,61.6,29.55,ENE,77,2.0,2.0,89,0.00,,,0.52,Wunderground v.1.15,2013-06-13 17:30:00,
2013-06-13 13:39:00,64.5,61.2,29.54,WSW,239,2.0,3.0,89,0.00,,,0.52,Wunderground v.1.15,2013-06-13 17:39:00,
2013-06-13 13:45:00,64.5,61.2,29.55,West,272,2.0,3.0,89,0.00,,,0.52,Wunderground v.1.15,2013-06-13 17:45:00,
2013-06-13 13:54:00,64.5,61.2,29.54,ENE,57,1.0,2.0,89,0.00,,,0.52,Wunderground v.1.15,2013-06-13 17:54:00,
2013-06-13 14:00:00,64.6,61.6,29.54,WNW,297,0.0,0.0,90,0.00,,,0.52,Wunderground v.1.15,2013-06-13 18:00:00,
2013-06-13 14:09:00,64.5,61.5,29.54,NNE,30,1.0,1.0,90,0.00,,,0.52,Wunderground v.1.15,2013-06-13 18:09:00,
2013-06-13 14:15:00,64.3,61.3,29.54,NNE,31,1.0,2.0,90,0.00,,,0.52,Wunderground v.1.15,2013-06-13 18:15:00,
2013-06-13 14:24:00,64.1,61.1,29.53,East,100,2.0,3.0,90,0.00,,,0.52,Wunderground v.1.15,2013-06-13 18:24:00,
2013-06-13 14:30:00,64.2,61.2,29.52,ESE,115,2.0,2.0,90,0.00,,,0.52,Wunderground v.1.15,2013-06-13 18:30:00,
2013-06-13 14:39:00,64.5,61.8,29.52,East,98,1.0,2.0,91,0.00,,,0.52,Wunderground v.1.15,2013-06-13 18:39:00,
2013-06-13 14:44:00,64.5,61.8,29.52,ENE,76,1.0,2.0,91,0.00,,,0.52,Wunderground v.1.15,2013-06-13 18:44:00,
2013-06-13 14:54:00,64.4,61.4,29.52,ENE,64,1.0,2.0,90,0.00,,,0.52,Wunderground v.1.15,2013-06-13 18:54:00,
2013-06-13 15:00:00,64.5,61.5,29.52,ESE,122,1.0,1.0,90,0.00,,,0.52,Wunderground v.1.15,2013-06-13 19:00:00,
2013-06-13 15:09:00,64.7,61.7,29.52,ESE,123,1.0,2.0,90,0.00,,,0.52,Wunderground v.1.15,2013-06-13 19:09:00,
2013-06-13 15:15:00,64.5,61.2,29.52,ENE,68,2.0,2.0,89,0.00,,,0.52,Wunderground v.1.15,2013-06-13 19:15:00,
2013-06-13 15:24:00,64.5,61.2,29.52,East,90,2.0,2.0,89,0.00,,,0.52,Wunderground v.1.15,2013-06-13 19:24:00,
2013-06-13 15:30:00,64.5,61.5,29.51,NE,53,2.0,3.0,90,0.00,,,0.52,Wunderground v.1.15,2013-06-13 19:30:00,
2013-06-13 15:39:00,64.1,61.1,29.50,SSE,147,2.0,2.0,90,0.00,,,0.52,Wunderground v.1.15,2013-06-13 19:39:00,
2013-06-13 15:44:00,64.0,61.0,29.50,ENE,69,3.0,3.0,90,0.00,,,0.52,Wunderground v.1.15,2013-06-13 19:44:00,
2013-06-13 15:54:00,63.9,61.2,29.49,East,101,2.0,2.0,91,0.00,,,0.52,Wunderground v.1.15,2013-06-13 19:54:00,
2013-06-13 16:00:00,63.9,61.2,29.49,North,355,1.0,2.0,91,0.00,,,0.52,Wunderground v.1.15,2013-06-13 20:00:00,
2013-06-13 16:09:00,63.8,61.1,29.49,NE,38,2.0,2.0,91,0.00,,,0.52,Wunderground v.1.15,2013-06-13 20:09:00,
2013-06-13 16:15:00,63.7,61.0,29.49,North,350,2.0,2.0,91,0.00,,,0.52,Wunderground v.1.15,2013-06-13 20:15:00,
2013-06-13 16:24:00,63.6,61.2,29.48,East,80,1.0,3.0,92,0.00,,,0.52,Wunderground v.1.15,2013-06-13 20:24:00,
2013-06-13 16:30:00,63.5,61.1,29.48,SE,142,1.0,2.0,92,0.00,,,0.52,Wunderground v.1.15,2013-06-13 20:30:00,
2013-06-13 16:39:00,63.4,61.0,29.46,East,82,1.0,2.0,92,0.00,,,0.52,Wunderground v.1.15,2013-06-13 20:39:00,
2013-06-13 16:45:00,63.2,60.8,29.45,ESE,104,1.0,2.0,92,0.00,,,0.52,Wunderground v.1.15,2013-06-13 20:45:00,
2013-06-13 16:54:00,63.3,61.2,29.45,NNE,32,1.0,1.0,93,0.00,,,0.52,Wunderground v.1.15,2013-06-13 20:54:00,
2013-06-13 16:59:00,63.2,61.1,29.45,NE,54,1.0,2.0,93,0.00,,,0.52,Wunderground v.1.15,2013-06-13 20:59:00,
2013-06-13 17:09:00,63.1,61.0,29.44,North,5,1.0,1.0,93,0.00,,,0.53,Wunderground v.1.15,2013-06-13 21:09:00,
2013-06-13 17:15:00,62.9,61.1,29.44,NE,34,1.0,1.0,94,0.00,,,0.53,Wunderground v.1.15,2013-06-13 21:15:00,
2013-06-13 17:24:00,62.7,61.2,29.48,NW,315,2.0,4.0,95,0.00,,,0.53,Wunderground v.1.15,2013-06-13 21:24:00,
2013-06-13 17:30:00,62.5,61.0,29.49,ENE,68,3.0,7.0,95,2.29,,,0.63,Wunderground v.1.15,2013-06-13 21:30:00,
2013-06-13 17:39:00,62.3,60.8,29.48,NNW,336,3.0,3.0,95,0.22,,,0.74,Wunderground v.1.15,2013-06-13 21:39:00,
2013-06-13 17:45:00,61.9,60.5,29.48,WSW,244,2.0,3.0,95,0.62,,,0.81,Wunderground v.1.15,2013-06-13 21:45:00,
2013-06-13 17:54:00,61.6,60.4,29.47,ENE,71,1.0,7.0,96,0.11,,,0.83,Wunderground v.1.15,2013-06-13 21:54:00,
2013-06-13 18:00:00,61.5,60.3,29.46,East,80,2.0,2.0,96,0.06,,,0.83,Wunderground v.1.15,2013-06-13 22:00:00,
2013-06-13 18:09:00,61.6,60.7,29.45,SE,146,1.0,1.0,97,0.00,,,0.83,Wunderground v.1.15,2013-06-13 22:09:00,
2013-06-13 18:15:00,61.7,60.8,29.46,ENE,63,1.0,4.0,97,0.00,,,0.83,Wunderground v.1.15,2013-06-13 22:15:00,
2013-06-13 18:24:00,61.6,60.7,29.46,NNE,31,1.0,4.0,97,0.00,,,0.83,Wunderground v.1.15,2013-06-13 22:24:00,
2013-06-13 18:30:00,61.6,60.7,29.46,ESE,111,1.0,1.0,97,0.00,,,0.83,Wunderground v.1.15,2013-06-13 22:30:00,
2013-06-13 18:39:00,61.4,60.5,29.46,ENE,74,1.0,1.0,97,0.00,,,0.83,Wunderground v.1.15,2013-06-13 22:39:00,
2013-06-13 18:45:00,61.2,60.3,29.47,NE,41,1.0,1.0,97,0.00,,,0.83,Wunderground v.1.15,2013-06-13 22:45:00,
2013-06-13 18:54:00,60.8,59.7,29.47,NE,49,1.0,2.0,96,0.00,,,0.83,Wunderground v.1.15,2013-06-13 22:54:00,
2013-06-13 19:00:00,60.8,59.9,29.47,SE,142,1.0,3.0,97,0.00,,,0.83,Wunderground v.1.15,2013-06-13 23:00:00,
2013-06-13 19:09:00,60.7,59.8,29.48,NNE,32,1.0,1.0,97,0.00,,,0.83,Wunderground v.1.15,2013-06-13 23:09:00,
2013-06-13 19:14:00,60.6,59.5,29.48,NE,46,1.0,2.0,96,0.00,,,0.83,Wunderground v.1.15,2013-06-13 23:14:00,
2013-06-13 19:24:00,60.4,59.3,29.49,North,10,2.0,2.0,96,0.00,,,0.83,Wunderground v.1.15,2013-06-13 23:24:00,
2013-06-13 19:30:00,60.3,59.2,29.49,East,80,2.0,2.0,96,0.00,,,0.83,Wunderground v.1.15,2013-06-13 23:30:00,
2013-06-13 19:39:00,60.1,59.0,29.49,NE,42,2.0,2.0,96,0.00,,,0.83,Wunderground v.1.15,2013-06-13 23:39:00,
2013-06-13 19:45:00,60.0,58.9,29.49,East,88,2.0,2.0,96,0.00,,,0.83,Wunderground v.1.15,2013-06-13 23:45:00,
2013-06-13 19:54:00,59.9,58.8,29.49,South,174,2.0,2.0,96,0.00,,,0.83,Wunderground v.1.15,2013-06-13 23:54:00,
2013-06-13 20:00:00,59.7,58.3,29.48,NNE,29,1.0,1.0,95,0.00,,,0.83,Wunderground v.1.15,2013-06-14 00:00:00,
2013-06-13 20:09:00,59.6,58.2,29.49,NE,37,2.0,2.0,95,0.00,,,0.83,Wunderground v.1.15,2013-06-14 00:09:00,
2013-06-13 20:15:00,59.5,58.1,29.48,SE,136,2.0,3.0,95,0.00,,,0.83,Wunderground v.1.15,2013-06-14 00:15:00,
2013-06-13 20:24:00,59.3,57.9,29.49,ENE,60,2.0,2.0,95,0.00,,,0.83,Wunderground v.1.15,2013-06-14 00:24:00,
2013-06-13 20:29:00,59.3,57.6,29.49,NE,44,2.0,2.0,94,0.00,,,0.83,Wunderground v.1.15,2013-06-14 00:29:00,
2013-06-13 20:39:00,59.3,57.9,29.49,NE,47,1.0,2.0,95,0.00,,,0.83,Wunderground v.1.15,2013-06-14 00:39:00,
2013-06-13 20:45:00,59.3,57.9,29.49,NE,44,1.0,2.0,95,0.00,,,0.83,Wunderground v.1.15,2013-06-14 00:45:00,
2013-06-13 20:50:00,59.2,57.8,29.49,NE,55,1.0,2.0,95,0.00,,,0.83,Wunderground v.1.15,2013-06-14 00:50:00,
2013-06-13 20:55:00,59.2,57.8,29.49,West,265,2.0,2.0,95,0.00,,,0.83,Wunderground v.1.15,2013-06-14 00:55:00,
2013-06-13 21:00:00,59.2,57.8,29.50,NE,46,2.0,3.0,95,0.00,,,0.83,Wunderground v.1.15,2013-06-14 01:00:00,
2013-06-13 21:10:00,59.1,57.4,29.50,NE,51,2.0,2.0,94,0.00,,,0.83,Wunderground v.1.15,2013-06-14 01:10:00,
2013-06-13 21:15:00,59.1,57.4,29.50,NE,42,2.0,4.0,94,0.00,,,0.83,Wunderground v.1.15,2013-06-14 01:15:00,
2013-06-13 21:25:00,58.9,57.2,29.51,NE,38,2.0,2.0,94,0.00,,,0.84,Wunderground v.1.15,2013-06-14 01:25:00,
2013-06-13 21:30:00,58.8,57.1,29.51,NE,43,2.0,3.0,94,0.00,,,0.84,Wunderground v.1.15,2013-06-14 01:30:00,
2013-06-13 21:40:00,58.7,57.0,29.51,NE,51,3.0,3.0,94,0.00,,,0.84,Wunderground v.1.15,2013-06-14 01:40:00,
2013-06-13 21:45:00,58.7,57.0,29.51,NE,43,2.0,3.0,94,0.00,,,0.85,Wunderground v.1.15,2013-06-14 01:45:00,
2013-06-13 21:55:00,58.5,57.1,29.52,NNE,30,2.0,2.0,95,0.00,,,0.85,Wunderground v.1.15,2013-06-14 01:55:00,
2013-06-13 22:00:00,58.3,56.9,29.52,NW,318,2.0,2.0,95,0.04,,,0.86,Wunderground v.1.15,2013-06-14 02:00:00,
2013-06-13 22:10:00,58.1,56.7,29.53,NE,47,2.0,2.0,95,0.04,,,0.86,Wunderground v.1.15,2013-06-14 02:10:00,
2013-06-13 22:15:00,57.9,56.8,29.53,SW,229,2.0,2.0,96,0.06,,,0.87,Wunderground v.1.15,2013-06-14 02:15:00,
2013-06-13 22:25:00,57.6,56.5,29.54,ENE,67,2.0,3.0,96,0.07,,,0.88,Wunderground v.1.15,2013-06-14 02:25:00,
2013-06-13 22:30:00,57.5,56.4,29.54,NE,35,2.0,2.0,96,0.32,,,0.90,Wunderground v.1.15,2013-06-14 02:30:00,
2013-06-13 22:40:00,57.2,56.1,29.55,NW,324,2.0,2.0,96,0.14,,,0.93,Wunderground v.1.15,2013-06-14 02:40:00,
2013-06-13 22:45:00,57.0,55.9,29.55,ENE,58,2.0,2.0,96,0.21,,,0.95,Wunderground v.1.15,2013-06-14 02:45:00,
2013-06-13 22:55:00,56.9,55.8,29.55,NNE,30,2.0,2.0,96,0.15,,,0.98,Wunderground v.1.15,2013-06-14 02:55:00,
2013-06-13 23:00:00,56.7,55.6,29.55,NNE,25,2.0,2.0,96,0.17,,,1.00,Wunderground v.1.15,2013-06-14 03:00:00,
2013-06-13 23:10:00,56.5,55.4,29.55,NE,41,3.0,3.0,96,0.17,,,1.02,Wunderground v.1.15,2013-06-14 03:10:00,
2013-06-13 23:15:00,56.4,55.3,29.55,SE,126,3.0,4.0,96,0.12,,,1.04,Wunderground v.1.15,2013-06-14 03:15:00,
2013-06-13 23:25:00,56.4,55.3,29.55,NE,38,3.0,3.0,96,0.07,,,1.05,Wunderground v.1.15,2013-06-14 03:25:00,
2013-06-13 23:30:00,56.3,55.2,29.55,NE,52,3.0,3.0,96,0.07,,,1.05,Wunderground v.1.15,2013-06-14 03:30:00,
2013-06-13 23:40:00,56.2,55.1,29.56,NE,47,2.0,4.0,96,0.04,,,1.05,Wunderground v.1.15,2013-06-14 03:40:00,
2013-06-13 23:45:00,56.2,55.1,29.56,NNE,15,2.0,4.0,96,0.00,,,1.05,Wunderground v.1.15,2013-06-14 03:45:00,
2013-06-13 23:55:00,56.0,54.9,29.56,NE,49,3.0,3.0,96,0.00,,,1.06,Wunderground v.1.15,2013-06-14 03:55:00,